RYR1035 EDDK-GCTS
Flight info
| Callsign | RYR1035 |
|---|---|
| Flight time | N/A |
| Altitude | 33000 |
| Route | NVO2R NVO Y868 SOGRI UM617 CIV N872 MEDIL/N0445F350 DCT KOVIN DCT NIDUV DCT KIHVI UN872 ERIGA UZ218 FUJTI DCT BAKUP DCT BATAX DCT BEXAL/N0446F370 UN866 KONBA |
| Aircraft | B738/M-SDE2E3FGHIRWXY/LB1 |
Departure
| Time | 2026-04-23 10:31 |
|---|---|
| Airport | Cologne Bonn Airport (EDDK) |
Arrival
| Time | N/A |
|---|---|
| Airport | Tenerife Sur Airport (GCTS) |
| Time | Latitude | Longitude | Altitude | Speed | Heading |
|---|---|---|---|---|---|
| 2026-04-23 09:48 | 50.87720 | 7.12156 | 234 ft | 0 kts | 51° |
| 2026-04-23 10:23 | 50.87704 | 7.12129 | 231 ft | 4 kts | 38° |
| 2026-04-23 10:23 | 50.87682 | 7.12106 | 233 ft | 4 kts | 25° |
| 2026-04-23 10:24 | 50.87657 | 7.12089 | 235 ft | 4 kts | 28° |
| 2026-04-23 10:24 | 50.87640 | 7.12070 | 232 ft | 4 kts | 94° |
| 2026-04-23 10:24 | 50.87640 | 7.12065 | 232 ft | 1 kts | 117° |
| 2026-04-23 10:27 | 50.87633 | 7.12085 | 232 ft | 6 kts | 117° |
| 2026-04-23 10:28 | 50.87606 | 7.12169 | 232 ft | 11 kts | 117° |
| 2026-04-23 10:28 | 50.87566 | 7.12287 | 231 ft | 13 kts | 117° |
| 2026-04-23 10:28 | 50.87549 | 7.12418 | 233 ft | 13 kts | 60° |
| 2026-04-23 10:28 | 50.87633 | 7.12482 | 231 ft | 14 kts | 18° |
| 2026-04-23 10:29 | 50.87734 | 7.12533 | 231 ft | 16 kts | 18° |
| 2026-04-23 10:29 | 50.87844 | 7.12590 | 231 ft | 15 kts | 18° |
| 2026-04-23 10:29 | 50.87934 | 7.12643 | 233 ft | 13 kts | 31° |
| 2026-04-23 10:29 | 50.87992 | 7.12746 | 237 ft | 13 kts | 62° |
| 2026-04-23 10:30 | 50.88012 | 7.12878 | 238 ft | 12 kts | 87° |
| 2026-04-23 10:30 | 50.87986 | 7.12998 | 238 ft | 13 kts | 137° |
| 2026-04-23 10:30 | 50.87796 | 7.13272 | 238 ft | 72 kts | 137° |
| 2026-04-23 10:30 | 50.87251 | 7.14062 | 243 ft | 138 kts | 137° |
| 2026-04-23 10:31 | 50.86407 | 7.15285 | 323 ft | 187 kts | 137° |
| 2026-04-23 10:31 | 50.85454 | 7.16671 | 1119 ft | 187 kts | 138° |
| 2026-04-23 10:31 | 50.84476 | 7.18051 | 1993 ft | 191 kts | 138° |
| 2026-04-23 10:31 | 50.83417 | 7.19524 | 2357 ft | 213 kts | 137° |
| 2026-04-23 10:32 | 50.82254 | 7.21139 | 2682 ft | 228 kts | 137° |
| 2026-04-23 10:32 | 50.81040 | 7.22824 | 3227 ft | 236 kts | 137° |
| 2026-04-23 10:32 | 50.79723 | 7.24451 | 3925 ft | 242 kts | 153° |
| 2026-04-23 10:32 | 50.78068 | 7.24859 | 4722 ft | 248 kts | 190° |
| 2026-04-23 10:33 | 50.76516 | 7.23717 | 5433 ft | 250 kts | 225° |
| 2026-04-23 10:33 | 50.75578 | 7.21455 | 6190 ft | 246 kts | 251° |
| 2026-04-23 10:33 | 50.75057 | 7.18870 | 6900 ft | 248 kts | 264° |
| 2026-04-23 10:33 | 50.75108 | 7.16132 | 7384 ft | 257 kts | 283° |
| 2026-04-23 10:34 | 50.75489 | 7.13276 | 7781 ft | 273 kts | 285° |
| 2026-04-23 10:34 | 50.75926 | 7.10322 | 8418 ft | 280 kts | 285° |
| 2026-04-23 10:34 | 50.76370 | 7.07302 | 9120 ft | 285 kts | 285° |
| 2026-04-23 10:34 | 50.76804 | 7.04257 | 9847 ft | 289 kts | 284° |
| 2026-04-23 10:35 | 50.77242 | 7.01123 | 10557 ft | 293 kts | 284° |
| 2026-04-23 10:35 | 50.77690 | 6.97887 | 10864 ft | 313 kts | 284° |
| 2026-04-23 10:35 | 50.78170 | 6.94399 | 11054 ft | 335 kts | 284° |
| 2026-04-23 10:35 | 50.78670 | 6.90730 | 11502 ft | 347 kts | 283° |
| 2026-04-23 10:36 | 50.79178 | 6.86982 | 12171 ft | 350 kts | 283° |
| 2026-04-23 10:36 | 50.79685 | 6.83218 | 12905 ft | 352 kts | 283° |
| 2026-04-23 10:36 | 50.80197 | 6.79416 | 13645 ft | 354 kts | 283° |
| 2026-04-23 10:36 | 50.80711 | 6.75593 | 14328 ft | 357 kts | 283° |
| 2026-04-23 10:37 | 50.81231 | 6.71719 | 14927 ft | 361 kts | 283° |
| 2026-04-23 10:37 | 50.81754 | 6.67812 | 15508 ft | 365 kts | 283° |
| 2026-04-23 10:37 | 50.82269 | 6.63907 | 16067 ft | 370 kts | 282° |
| 2026-04-23 10:37 | 50.82546 | 6.59834 | 16620 ft | 375 kts | 274° |
| 2026-04-23 10:38 | 50.82595 | 6.55687 | 17169 ft | 380 kts | 270° |
| 2026-04-23 10:38 | 50.82582 | 6.51468 | 17735 ft | 384 kts | 270° |
| 2026-04-23 10:38 | 50.82568 | 6.47214 | 18360 ft | 387 kts | 270° |
| 2026-04-23 10:38 | 50.82571 | 6.42942 | 18898 ft | 391 kts | 270° |
| 2026-04-23 10:39 | 50.82592 | 6.38626 | 19379 ft | 395 kts | 270° |
| 2026-04-23 10:39 | 50.82626 | 6.34269 | 19874 ft | 398 kts | 270° |
| 2026-04-23 10:39 | 50.82665 | 6.29866 | 20379 ft | 401 kts | 270° |
| 2026-04-23 10:39 | 50.82706 | 6.25444 | 20861 ft | 405 kts | 270° |
| 2026-04-23 10:40 | 50.82645 | 6.20950 | 21146 ft | 414 kts | 262° |
| 2026-04-23 10:40 | 50.81961 | 6.16549 | 21358 ft | 422 kts | 247° |
| 2026-04-23 10:40 | 50.80604 | 6.12437 | 21795 ft | 423 kts | 235° |
| 2026-04-23 10:40 | 50.78967 | 6.08557 | 22306 ft | 424 kts | 234° |
| 2026-04-23 10:41 | 50.77322 | 6.04678 | 22825 ft | 426 kts | 234° |
| 2026-04-23 10:41 | 50.75667 | 6.00767 | 23262 ft | 429 kts | 234° |
| 2026-04-23 10:41 | 50.74010 | 5.96829 | 23670 ft | 432 kts | 234° |
| 2026-04-23 10:41 | 50.72346 | 5.92854 | 24085 ft | 435 kts | 234° |
| 2026-04-23 10:42 | 50.70675 | 5.88853 | 24441 ft | 438 kts | 234° |